Time;durP1;ratioP1;P1;durP2;ratioP2;P2;SDS_P1;SDS_P2;PMS_P1;PMS_P2;Temp;Humidity;BMP_temperature;BMP_pressure;BME280_temperature;BME280_humidity;BME280_pressure;Samples;Min_cycle;Max_cycle;Signal;HPM_P1;HPM_P2
2022/04/16 00:00:17;;;;;;;;;;;;;;;12.23;100.00;100292.84;5068663;28;19959;-46
2022/04/16 00:02:44;;;;;;;;;;;;;;;11.92;100.00;100290.78;5062237;28;20524;-48
2022/04/16 00:05:10;;;;;;;;;;;;;;;11.97;100.00;100286.38;5065042;28;20434;-45
2022/04/16 00:07:35;;;;;;;;;;;;;;;11.33;100.00;100289.94;5063046;28;19924;-46
2022/04/16 00:10:00;;;;;;;;;;;;;;;11.98;100.00;100285.53;5064563;28;20347;-46
2022/04/16 00:12:27;;;;;;;;;;;;;;;12.01;100.00;100285.47;5062067;28;19921;-47
2022/04/16 00:14:53;;;;;;;;;;;;;;;12.10;100.00;100285.28;5063399;28;19915;-45
2022/04/16 00:17:18;;;;;;;;;;;;;;;11.89;100.00;100283.09;5063700;28;19924;-48
2022/04/16 00:19:43;;;;;;;;;;;;;;;12.12;100.00;100285.28;5064335;28;20027;-45
2022/04/16 00:22:09;;;;;;;;;;;;;;;11.81;100.00;100284.91;5066291;28;20011;-46
2022/04/16 00:24:35;;;;;;;;;;;;;;;11.97;100.00;100280.38;5062365;28;19927;-46
2022/04/16 00:27:00;;;;;;;;;;;;;;;12.18;100.00;100279.13;5065129;28;19941;-49
2022/04/16 00:29:26;;;;;;;;;;;;;;;12.21;100.00;100289.44;5064668;28;19930;-47
2022/04/16 00:31:52;;;;;;;;;;;;;;;12.13;100.00;100287.84;5064739;28;19969;-46
2022/04/16 00:34:18;;;;;;;;;;;;;;;12.10;100.00;100281.88;5062966;28;20361;-47
2022/04/16 00:36:44;;;;;;;;;;;;;;;11.48;100.00;100293.16;5062350;28;19921;-47
2022/04/16 00:39:09;;;;;;;;;;;;;;;11.82;100.00;100289.22;5065949;28;20437;-47
2022/04/16 00:41:35;;;;;;;;;;;;;;;12.16;100.00;100288.63;5063579;28;19920;-49
2022/04/16 00:44:00;;;;;;;;;;;;;;;11.88;100.00;100289.13;5061495;28;19920;-46
2022/04/16 00:46:25;;;;;;;;;;;;;;;12.32;100.00;100287.50;5062094;28;20362;-45
2022/04/16 00:48:50;;;;;;;;;;;;;;;12.12;100.00;100285.28;5062776;28;20432;-46
2022/04/16 00:51:16;;;;;;;;;;;;;;;12.04;100.00;100281.97;5061078;28;19920;-45
2022/04/16 00:53:41;;;;;;;;;;;;;;;11.92;100.00;100283.03;5061140;28;19921;-46
2022/04/16 00:56:06;;;;;;;;;;;;;;;11.91;100.00;100279.63;5066202;28;19931;-46
2022/04/16 00:58:32;;;;;;;;;;;;;;;11.89;100.00;100280.53;5062987;28;19920;-46
2022/04/16 01:00:57;;;;;;;;;;;;;;;11.92;100.00;100275.28;5063117;28;20653;-49
2022/04/16 01:03:22;;;;;;;;;;;;;;;11.85;100.00;100279.66;5062079;28;19932;-47
2022/04/16 01:05:47;;;;;;;;;;;;;;;11.94;100.00;100281.28;5064546;28;20820;-46
2022/04/16 01:08:13;;;;;;;;;;;;;;;11.98;100.00;100280.34;5063043;28;20510;-46
2022/04/16 01:10:38;;;;;;;;;;;;;;;11.88;100.00;100287.41;5063414;28;20966;-46
2022/04/16 01:13:04;;;;;;;;;;;;;;;12.09;100.00;100287.94;5064957;28;19920;-46
2022/04/16 01:15:30;;;;;;;;;;;;;;;12.02;100.00;100282.03;5062146;28;19923;-45
2022/04/16 01:17:56;;;;;;;;;;;;;;;11.99;100.00;100291.53;5066575;28;19912;-45
2022/04/16 01:20:22;;;;;;;;;;;;;;;12.08;100.00;100294.78;5064721;28;19925;-45
2022/04/16 01:22:48;;;;;;;;;;;;;;;12.00;100.00;100291.50;5064475;28;19924;-45
2022/04/16 01:25:13;;;;;;;;;;;;;;;11.80;100.00;100288.38;5060944;28;19920;-46
2022/04/16 01:27:45;;;;;;;;;;;;;;;11.76;100.00;100297.03;5066064;28;20671;-45
2022/04/16 01:30:11;;;;;;;;;;;;;;;11.61;100.00;100299.00;5065949;28;19924;-45
2022/04/16 01:32:36;;;;;;;;;;;;;;;11.69;100.00;100291.97;5065018;28;20552;-46
2022/04/16 01:35:04;;;;;;;;;;;;;;;11.80;100.00;100296.13;5065445;28;19966;-45
2022/04/16 01:37:33;;;;;;;;;;;;;;;11.80;100.00;100298.69;5067722;28;20777;-46
2022/04/16 01:39:59;;;;;;;;;;;;;;;11.70;100.00;100298.84;5063908;28;19920;-45
2022/04/16 01:42:24;;;;;;;;;;;;;;;11.78;100.00;100295.28;5064693;28;19924;-45
2022/04/16 01:44:51;;;;;;;;;;;;;;;11.58;100.00;100293.88;5066673;28;19920;-45
2022/04/16 01:47:17;;;;;;;;;;;;;;;11.51;100.00;100292.25;5064200;28;19967;-45
2022/04/16 01:49:42;;;;;;;;;;;;;;;11.44;100.00;100295.81;5065477;28;20007;-46
2022/04/16 01:52:08;;;;;;;;;;;;;;;11.39;100.00;100295.88;5063171;28;19924;-46
2022/04/16 01:54:33;;;;;;;;;;;;;;;11.46;100.00;100299.22;5062071;28;19920;-46
2022/04/16 01:56:59;;;;;;;;;;;;;;;11.24;100.00;100294.38;5063263;28;19920;-47
2022/04/16 01:59:25;;;;;;;;;;;;;;;11.38;100.00;100301.94;5061710;28;19921;-45
2022/04/16 02:01:50;;;;;;;;;;;;;;;10.83;100.00;100300.94;5060077;28;19924;-47
2022/04/16 02:04:15;;;;;;;;;;;;;;;10.60;100.00;100298.59;5063891;28;19925;-45
2022/04/16 02:06:40;;;;;;;;;;;;;;;11.21;100.00;100299.56;5064225;28;19931;-45
2022/04/16 02:09:06;;;;;;;;;;;;;;;11.34;100.00;100304.56;5063624;28;19927;-45
2022/04/16 02:11:31;;;;;;;;;;;;;;;11.51;100.00;100307.75;5061183;28;19979;-46
2022/04/16 02:13:56;;;;;;;;;;;;;;;11.12;100.00;100307.44;5063565;28;19924;-46
2022/04/16 02:16:21;;;;;;;;;;;;;;;11.25;100.00;100311.56;5065042;28;19926;-45
2022/04/16 02:18:47;;;;;;;;;;;;;;;11.43;100.00;100314.75;5064180;28;20405;-46
2022/04/16 02:21:12;;;;;;;;;;;;;;;11.66;100.00;100312.69;5061749;28;20429;-47
2022/04/16 02:23:37;;;;;;;;;;;;;;;11.86;100.00;100314.06;5063740;28;19924;-45
2022/04/16 02:26:07;;;;;;;;;;;;;;;11.19;100.00;100315.94;5065358;28;19974;-45
2022/04/16 02:28:33;;;;;;;;;;;;;;;10.57;100.00;100310.69;5060835;28;19959;-46
2022/04/16 02:30:58;;;;;;;;;;;;;;;11.08;100.00;100316.06;5063723;28;20629;-45
2022/04/16 02:33:23;;;;;;;;;;;;;;;11.59;100.00;100313.66;5063959;28;19920;-46
2022/04/16 02:35:48;;;;;;;;;;;;;;;11.10;100.00;100322.06;5063747;28;19935;-44
2022/04/16 02:38:14;;;;;;;;;;;;;;;11.87;100.00;100315.78;5066037;28;19923;-48
2022/04/16 02:40:39;;;;;;;;;;;;;;;10.89;100.00;100324.03;5064470;28;20664;-45
2022/04/16 02:43:04;;;;;;;;;;;;;;;11.90;100.00;100315.75;5062041;28;20738;-45
2022/04/16 02:48:13;;;;;;;;;;;;;;;11.54;100.00;100328.34;5064695;28;19927;-45
2022/04/16 02:50:39;;;;;;;;;;;;;;;10.85;100.00;100332.66;5062965;28;20591;-45
2022/04/16 02:53:04;;;;;;;;;;;;;;;10.95;100.00;100335.13;5064875;28;20400;-45
2022/04/16 02:55:30;;;;;;;;;;;;;;;11.38;100.00;100335.47;5061645;28;19963;-45
2022/04/16 02:57:55;;;;;;;;;;;;;;;11.57;100.00;100328.28;5063693;28;20249;-46
2022/04/16 03:00:20;;;;;;;;;;;;;;;11.63;100.00;100328.22;5061982;28;20050;-44
2022/04/16 03:02:47;;;;;;;;;;;;;;;11.61;100.00;100334.25;5064381;28;19955;-46
2022/04/16 03:05:12;;;;;;;;;;;;;;;11.76;100.00;100328.00;5042964;28;19952;-44
2022/04/16 03:07:37;;;;;;;;;;;;;;;11.61;100.00;100335.13;5061421;28;20214;-44
2022/04/16 03:10:03;;;;;;;;;;;;;;;11.15;100.00;100330.56;5060222;28;20009;-45
2022/04/16 03:12:28;;;;;;;;;;;;;;;11.56;100.00;100336.88;5060673;28;20297;-45
2022/04/16 03:17:37;;;;;;;;;;;;;;;10.73;100.00;100343.13;5063662;28;20301;-44
2022/04/16 03:20:06;;;;;;;;;;;;;;;10.27;100.00;100349.56;5068313;28;19920;-45
2022/04/16 03:22:35;;;;;;;;;;;;;;;10.41;100.00;100352.03;5068419;28;19946;-48
2022/04/16 03:25:09;;;;;;;;;;;;;;;10.47;100.00;100356.28;5067868;28;19924;-44
2022/04/16 03:27:36;;;;;;;;;;;;;;;10.24;100.00;100343.56;5067423;28;19927;-44
2022/04/16 03:30:02;;;;;;;;;;;;;;;10.40;100.00;100350.34;5062890;28;19920;-45
2022/04/16 03:32:27;;;;;;;;;;;;;;;10.54;100.00;100357.09;5065322;28;19978;-44
2022/04/16 03:34:53;;;;;;;;;;;;;;;10.57;100.00;100362.19;5063759;28;19923;-44
2022/04/16 03:37:18;;;;;;;;;;;;;;;9.98;100.00;100361.81;5066156;28;19921;-44
2022/04/16 03:39:44;;;;;;;;;;;;;;;9.97;100.00;100360.13;5065579;28;19921;-45
2022/04/16 03:42:09;;;;;;;;;;;;;;;10.39;100.00;100364.06;5064835;28;20104;-44
2022/04/16 03:44:34;;;;;;;;;;;;;;;10.02;100.00;100368.66;5067353;28;19923;-44
2022/04/16 03:46:59;;;;;;;;;;;;;;;10.57;100.00;100367.34;5069146;28;20661;-44
2022/04/16 03:49:25;;;;;;;;;;;;;;;10.32;100.00;100364.16;5066473;28;19974;-45
2022/04/16 03:51:50;;;;;;;;;;;;;;;10.27;100.00;100361.59;5065156;28;19920;-45
2022/04/16 04:00:03;;;;;;;;;;;;;;;9.26;100.00;100369.97;5066619;28;19943;-45
2022/04/16 04:02:28;;;;;;;;;;;;;;;9.45;100.00;100376.75;5065793;28;19931;-45
2022/04/16 04:04:54;;;;;;;;;;;;;;;9.91;100.00;100376.44;5065458;28;19920;-46
2022/04/16 04:07:19;;;;;;;;;;;;;;;9.48;100.00;100374.16;5065677;28;20673;-45
2022/04/16 04:09:44;;;;;;;;;;;;;;;9.71;100.00;100373.16;5065689;28;19939;-44
2022/04/16 04:12:10;;;;;;;;;;;;;;;10.02;100.00;100374.66;5065238;28;19974;-46
2022/04/16 04:14:36;;;;;;;;;;;;;;;9.57;100.00;100386.09;5065891;28;19927;-45
2022/04/16 04:17:02;;;;;;;;;;;;;;;9.53;100.00;100387.81;5066313;28;19925;-47
2022/04/16 04:19:27;;;;;;;;;;;;;;;9.51;100.00;100392.16;5065847;28;19924;-46
2022/04/16 04:21:52;;;;;;;;;;;;;;;9.52;100.00;100405.84;5067001;28;20353;-44
2022/04/16 04:24:17;;;;;;;;;;;;;;;9.30;100.00;100397.38;5065241;28;19990;-44
2022/04/16 04:26:42;;;;;;;;;;;;;;;10.17;100.00;100417.47;5067760;28;19955;-45
2022/04/16 04:29:08;;;;;;;;;;;;;;;9.42;100.00;100412.78;5065142;28;20811;-44
2022/04/16 04:31:33;;;;;;;;;;;;;;;9.71;100.00;100419.47;5066307;28;20369;-45
2022/04/16 04:33:58;;;;;;;;;;;;;;;9.34;100.00;100415.34;5067593;28;20330;-44
2022/04/16 04:36:24;;;;;;;;;;;;;;;10.06;100.00;100421.81;5063804;28;19970;-44
2022/04/16 04:38:49;;;;;;;;;;;;;;;9.67;100.00;100433.19;5061797;28;19948;-46
2022/04/16 04:41:15;;;;;;;;;;;;;;;9.66;100.00;100431.50;5066561;28;19973;-44
2022/04/16 04:43:40;;;;;;;;;;;;;;;9.45;100.00;100432.47;5064436;28;19926;-44
2022/04/16 04:46:05;;;;;;;;;;;;;;;9.50;100.00;100433.28;5063858;28;19920;-44
2022/04/16 04:48:30;;;;;;;;;;;;;;;10.09;100.00;100437.25;5065776;28;19916;-45
2022/04/16 04:50:55;;;;;;;;;;;;;;;9.41;100.00;100437.59;5066452;28;19926;-45
2022/04/16 04:53:21;;;;;;;;;;;;;;;10.50;100.00;100438.66;5064090;28;20447;-46
2022/04/16 04:55:46;;;;;;;;;;;;;;;9.78;100.00;100446.84;5062161;28;20624;-46
2022/04/16 04:58:11;;;;;;;;;;;;;;;9.92;100.00;100455.38;5067013;28;20557;-46
2022/04/16 05:00:36;;;;;;;;;;;;;;;9.84;100.00;100462.28;5064309;28;20021;-46
2022/04/16 05:03:02;;;;;;;;;;;;;;;10.36;100.00;100467.13;5065625;28;19951;-45
2022/04/16 05:05:27;;;;;;;;;;;;;;;10.25;100.00;100464.56;5066127;28;19920;-46
2022/04/16 05:07:52;;;;;;;;;;;;;;;10.07;100.00;100463.84;5063765;28;20045;-46
2022/04/16 05:10:18;;;;;;;;;;;;;;;11.12;100.00;100469.00;5065786;28;19920;-45
2022/04/16 05:12:43;;;;;;;;;;;;;;;11.49;100.00;100466.84;5062755;28;20335;-46
2022/04/16 05:15:08;;;;;;;;;;;;;;;10.71;100.00;100468.53;5063249;28;20696;-46
2022/04/16 05:17:37;;;;;;;;;;;;;;;10.06;100.00;100473.31;5064239;28;19983;-46
2022/04/16 05:20:04;;;;;;;;;;;;;;;10.66;100.00;100472.88;5061575;28;20447;-46
2022/04/16 05:22:29;;;;;;;;;;;;;;;10.46;100.00;100473.03;5064286;28;19924;-45
2022/04/16 05:24:55;;;;;;;;;;;;;;;10.80;100.00;100481.34;5063477;28;19931;-45
2022/04/16 05:27:20;;;;;;;;;;;;;;;11.84;100.00;100484.47;5063032;28;20369;-45
2022/04/16 05:29:48;;;;;;;;;;;;;;;11.06;100.00;100480.22;5063782;28;20002;-46
2022/04/16 05:32:16;;;;;;;;;;;;;;;11.36;100.00;100483.34;5064235;28;20032;-46
2022/04/16 05:34:42;;;;;;;;;;;;;;;11.35;100.00;100484.22;5062246;28;19920;-48
2022/04/16 05:37:07;;;;;;;;;;;;;;;11.12;100.00;100485.31;5064512;28;20425;-45
2022/04/16 05:39:32;;;;;;;;;;;;;;;11.13;100.00;100481.91;5066960;28;19974;-44
2022/04/16 05:41:57;;;;;;;;;;;;;;;10.43;100.00;100483.38;5060126;28;19924;-45
2022/04/16 05:44:23;;;;;;;;;;;;;;;9.59;100.00;100495.81;5065379;28;19923;-46
2022/04/16 05:46:48;;;;;;;;;;;;;;;10.76;100.00;100502.84;5063692;28;19929;-49
2022/04/16 05:49:13;;;;;;;;;;;;;;;9.67;100.00;100508.69;5063181;28;19923;-45
2022/04/16 05:51:38;;;;;;;;;;;;;;;10.26;100.00;100506.63;5062001;28;19920;-46
2022/04/16 05:54:03;;;;;;;;;;;;;;;10.99;100.00;100509.50;5064494;28;19916;-47
2022/04/16 05:56:29;;;;;;;;;;;;;;;11.73;100.00;100510.41;5064729;28;20431;-45
2022/04/16 05:58:55;;;;;;;;;;;;;;;10.42;100.00;100515.13;5063963;28;20506;-47
2022/04/16 06:01:20;;;;;;;;;;;;;;;11.41;100.00;100512.53;5056770;28;20316;-47
2022/04/16 06:03:45;;;;;;;;;;;;;;;10.93;100.00;100519.91;5060657;28;20270;-45
2022/04/16 06:06:10;;;;;;;;;;;;;;;10.48;100.00;100503.94;5062661;28;20025;-45
2022/04/16 06:08:36;;;;;;;;;;;;;;;11.59;100.00;100506.31;5066331;28;20018;-46
2022/04/16 06:11:01;;;;;;;;;;;;;;;11.10;100.00;100505.09;5063128;28;19920;-46
2022/04/16 06:13:26;;;;;;;;;;;;;;;10.81;100.00;100507.94;5058625;28;20874;-47
2022/04/16 06:15:52;;;;;;;;;;;;;;;10.77;100.00;100507.16;5060478;28;20403;-47
2022/04/16 06:18:17;;;;;;;;;;;;;;;10.88;100.00;100517.38;5065165;28;19924;-47
2022/04/16 06:20:42;;;;;;;;;;;;;;;11.29;100.00;100516.97;5063409;28;19924;-46
2022/04/16 06:23:07;;;;;;;;;;;;;;;10.69;100.00;100521.78;5061802;28;19924;-46
2022/04/16 06:25:33;;;;;;;;;;;;;;;11.64;100.00;100520.00;5060496;28;19946;-46
2022/04/16 06:27:58;;;;;;;;;;;;;;;11.38;100.00;100522.88;5063710;28;19964;-45
2022/04/16 06:30:23;;;;;;;;;;;;;;;11.05;100.00;100527.50;5064281;28;19926;-45
2022/04/16 06:32:48;;;;;;;;;;;;;;;11.51;100.00;100520.13;5054364;28;20404;-47
2022/04/16 06:35:14;;;;;;;;;;;;;;;11.15;100.00;100531.69;5053407;28;19930;-46
2022/04/16 06:37:43;;;;;;;;;;;;;;;11.32;100.00;100516.06;5059993;28;19926;-47
2022/04/16 06:40:09;;;;;;;;;;;;;;;11.82;100.00;100518.94;5061685;28;19982;-47
2022/04/16 06:42:34;;;;;;;;;;;;;;;11.62;100.00;100520.00;5062244;28;20387;-46
2022/04/16 06:44:59;;;;;;;;;;;;;;;11.31;100.00;100516.91;5061582;28;19923;-47
2022/04/16 06:47:24;;;;;;;;;;;;;;;11.89;100.00;100521.44;5065798;28;19916;-47
2022/04/16 06:49:50;;;;;;;;;;;;;;;11.93;100.00;100517.09;5061365;28;20381;-45
2022/04/16 06:52:18;;;;;;;;;;;;;;;11.79;100.00;100519.84;5063058;28;19951;-46
2022/04/16 06:54:44;;;;;;;;;;;;;;;11.44;100.00;100525.38;5067261;28;20124;-46
2022/04/16 06:57:09;;;;;;;;;;;;;;;11.28;100.00;100528.13;5065414;28;19938;-46
2022/04/16 06:59:34;;;;;;;;;;;;;;;12.16;100.00;100536.56;5065917;28;20704;-48
2022/04/16 07:01:59;;;;;;;;;;;;;;;11.55;100.00;100531.28;5062309;28;20551;-49
2022/04/16 07:04:25;;;;;;;;;;;;;;;11.28;100.00;100528.13;5067917;28;19924;-47
2022/04/16 07:06:50;;;;;;;;;;;;;;;11.64;100.00;100531.19;5068447;28;20007;-48
2022/04/16 07:09:15;;;;;;;;;;;;;;;12.63;100.00;100535.03;5065585;28;19955;-48
2022/04/16 07:11:40;;;;;;;;;;;;;;;11.86;100.00;100530.91;5064591;28;19978;-47
2022/04/16 07:14:06;;;;;;;;;;;;;;;11.63;100.00;100534.66;5070018;28;19916;-46
2022/04/16 07:16:31;;;;;;;;;;;;;;;12.00;100.00;100528.19;5065597;28;20422;-47
2022/04/16 07:18:56;;;;;;;;;;;;;;;11.99;100.00;100537.66;5065511;28;19923;-44
2022/04/16 07:21:21;;;;;;;;;;;;;;;11.71;100.00;100543.13;5066511;28;19931;-45
2022/04/16 07:23:46;;;;;;;;;;;;;;;12.03;100.00;100536.75;5067286;28;19920;-49
2022/04/16 07:26:12;;;;;;;;;;;;;;;11.73;100.00;100541.38;5054297;28;19916;-37
2022/04/16 07:28:37;;;;;;;;;;;;;;;12.22;100.00;100533.91;5068557;28;19927;-45
2022/04/16 07:31:02;;;;;;;;;;;;;;;12.24;100.00;100527.84;5067541;28;19923;-47
2022/04/16 07:33:29;;;;;;;;;;;;;;;12.87;100.00;100538.94;5065401;28;19916;-46
2022/04/16 07:35:55;;;;;;;;;;;;;;;12.48;100.00;100544.72;5065661;28;19996;-46
2022/04/16 07:38:20;;;;;;;;;;;;;;;13.18;100.00;100534.06;5065726;28;19964;-37
2022/04/16 07:40:45;;;;;;;;;;;;;;;12.53;100.00;100540.34;5067215;28;19977;-37
2022/04/16 07:43:11;;;;;;;;;;;;;;;12.59;100.00;100533.34;5065406;28;20043;-37
2022/04/16 07:45:36;;;;;;;;;;;;;;;13.16;100.00;100533.28;5065277;28;20003;-37
2022/04/16 07:48:01;;;;;;;;;;;;;;;12.79;100.00;100531.31;5064883;28;19917;-37
2022/04/16 07:50:26;;;;;;;;;;;;;;;12.18;100.00;100533.13;5068012;28;19989;-37
2022/04/16 07:52:52;;;;;;;;;;;;;;;11.84;100.00;100537.84;5064009;28;19920;-37
2022/04/16 07:55:17;;;;;;;;;;;;;;;12.09;100.00;100536.66;5063350;28;19934;-37
2022/04/16 07:57:42;;;;;;;;;;;;;;;12.77;100.00;100522.72;5064641;28;19927;-37
2022/04/16 08:00:09;;;;;;;;;;;;;;;12.63;100.00;100529.84;5065499;28;19922;-37
2022/04/16 08:02:34;;;;;;;;;;;;;;;13.48;100.00;100511.13;5062245;28;20039;-37
2022/04/16 08:04:59;;;;;;;;;;;;;;;12.66;100.00;100514.31;5059013;28;19926;-37
2022/04/16 08:07:24;;;;;;;;;;;;;;;13.68;100.00;100514.16;5064221;28;20305;-37
2022/04/16 08:09:50;;;;;;;;;;;;;;;13.39;100.00;100510.44;5068030;28;19916;-37
2022/04/16 08:12:15;;;;;;;;;;;;;;;13.36;100.00;100505.34;5066411;28;19923;-37
2022/04/16 08:14:40;;;;;;;;;;;;;;;14.13;100.00;100511.47;5066048;28;19919;-37
2022/04/16 08:17:06;;;;;;;;;;;;;;;12.51;100.00;100510.22;5063540;28;19931;-37
2022/04/16 08:19:31;;;;;;;;;;;;;;;13.10;100.00;100503.19;5064797;28;19916;-37
2022/04/16 08:21:56;;;;;;;;;;;;;;;14.07;100.00;100511.63;5066616;28;20394;-37
2022/04/16 08:26:56;;;;;;;;;;;;;;;14.71;100.00;100518.81;5065935;28;19927;-37
2022/04/16 08:29:22;;;;;;;;;;;;;;;15.00;100.00;100516.31;5066169;28;20369;-37
2022/04/16 08:31:47;;;;;;;;;;;;;;;13.97;100.00;100528.25;5063079;28;19929;-37
2022/04/16 08:34:13;;;;;;;;;;;;;;;15.36;100.00;100513.66;5064708;28;19916;-37
2022/04/16 08:36:38;;;;;;;;;;;;;;;15.25;100.00;100520.88;5066315;28;19916;-37
2022/04/16 08:39:04;;;;;;;;;;;;;;;16.03;100.00;100533.41;5063246;28;19931;-37
2022/04/16 08:41:29;;;;;;;;;;;;;;;13.28;100.00;100532.22;5061451;28;19927;-37
2022/04/16 08:43:55;;;;;;;;;;;;;;;14.04;100.00;100527.22;5065155;28;19935;-37
2022/04/16 08:46:20;;;;;;;;;;;;;;;14.09;100.00;100527.97;5064738;28;19919;-38
2022/04/16 08:48:45;;;;;;;;;;;;;;;14.38;100.00;100519.53;5063640;28;20551;-37
2022/04/16 08:51:11;;;;;;;;;;;;;;;13.86;100.00;100532.81;5063169;28;19943;-37
2022/04/16 08:53:37;;;;;;;;;;;;;;;14.19;99.10;100526.91;5062001;28;19932;-38
2022/04/16 08:56:03;;;;;;;;;;;;;;;14.58;95.43;100523.47;5061060;28;19920;-38
2022/04/16 08:58:31;;;;;;;;;;;;;;;15.35;97.40;100527.53;5063289;28;20428;-37
2022/04/16 09:00:56;;;;;;;;;;;;;;;14.72;93.98;100530.91;5079021;28;19920;-37
2022/04/16 09:03:22;;;;;;;;;;;;;;;14.39;97.62;100543.72;5064821;28;20757;-38
2022/04/16 09:05:52;;;;;;;;;;;;;;;15.21;91.56;100530.50;5062675;28;20753;-37
2022/04/16 09:08:26;;;;;;;;;;;;;;;14.39;95.10;100533.34;5062462;28;19952;-38
2022/04/16 09:10:51;;;;;;;;;;;;;;;14.98;90.50;100533.66;5064394;28;19920;-35
2022/04/16 09:13:16;;;;;;;;;;;;;;;14.14;94.95;100535.66;5064685;28;20041;-37
2022/04/16 09:15:43;;;;;;;;;;;;;;;14.99;92.69;100529.34;5062300;28;20036;-38
2022/04/16 09:18:08;;;;;;;;;;;;;;;15.24;95.30;100537.34;5066259;28;19913;-38
2022/04/16 09:20:35;;;;;;;;;;;;;;;16.16;86.29;100539.94;5057706;28;20393;-35
2022/04/16 09:23:01;;;;;;;;;;;;;;;14.94;80.48;100528.59;5063533;28;19921;-37
2022/04/16 09:25:28;;;;;;;;;;;;;;;16.73;78.11;100522.53;5064360;28;19925;-38
2022/04/16 09:27:53;;;;;;;;;;;;;;;15.12;81.82;100525.56;5059153;28;19972;-37
2022/04/16 09:30:29;;;;;;;;;;;;;;;16.63;79.84;100527.22;5059584;28;19924;-38
2022/04/16 09:32:58;;;;;;;;;;;;;;;15.69;72.91;100517.06;5057963;28;19971;-38
2022/04/16 09:35:27;;;;;;;;;;;;;;;15.45;79.90;100528.97;5060143;28;20430;-37
2022/04/16 09:37:56;;;;;;;;;;;;;;;16.03;72.51;100520.41;5062924;28;20544;-37
2022/04/16 09:40:25;;;;;;;;;;;;;;;16.66;74.00;100521.91;5063035;28;19951;-37
2022/04/16 09:42:51;;;;;;;;;;;;;;;15.48;73.67;100523.69;5062579;28;20387;-38
2022/04/16 09:45:17;;;;;;;;;;;;;;;17.50;76.93;100531.19;5063105;28;19920;-37
2022/04/16 09:47:42;;;;;;;;;;;;;;;17.20;72.87;100532.31;5064042;28;20416;-35
2022/04/16 09:50:07;;;;;;;;;;;;;;;14.70;70.80;100533.53;5061241;28;20401;-42
2022/04/16 09:52:33;;;;;;;;;;;;;;;16.28;73.32;100521.38;5063190;28;20568;-35
2022/04/16 09:54:58;;;;;;;;;;;;;;;16.55;69.46;100530.94;5061887;28;20003;-35
2022/04/16 09:57:23;;;;;;;;;;;;;;;16.84;70.45;100533.47;5060745;28;20377;-35
2022/04/16 09:59:49;;;;;;;;;;;;;;;16.56;61.68;100525.72;5064364;28;20529;-35
2022/04/16 10:02:15;;;;;;;;;;;;;;;16.30;58.08;100529.97;5060642;28;19935;-35
2022/04/16 10:04:40;;;;;;;;;;;;;;;17.72;63.42;100525.19;5061483;28;19920;-35
2022/04/16 10:07:07;;;;;;;;;;;;;;;15.88;51.81;100521.75;5062448;28;20223;-35
2022/04/16 10:09:35;;;;;;;;;;;;;;;16.31;56.69;100521.28;5059435;28;19959;-35
2022/04/16 10:14:46;;;;;;;;;;;;;;;15.74;51.02;100514.34;5060279;28;20725;-37
2022/04/16 10:17:11;;;;;;;;;;;;;;;17.00;49.04;100502.59;5059032;28;20389;-35
2022/04/16 10:19:37;;;;;;;;;;;;;;;15.98;50.50;100512.75;5062464;28;19924;-35
2022/04/16 10:22:02;;;;;;;;;;;;;;;15.03;46.53;100516.25;5061220;28;19956;-37
2022/04/16 10:24:28;;;;;;;;;;;;;;;16.68;49.01;100509.69;5061284;28;19921;-38
2022/04/16 10:27:02;;;;;;;;;;;;;;;16.88;45.38;100506.47;5058888;28;20014;-38
2022/04/16 10:29:27;;;;;;;;;;;;;;;19.12;50.31;100504.84;5060844;28;20099;-38
2022/04/16 10:31:52;;;;;;;;;;;;;;;17.07;46.08;100509.28;5062913;28;19945;-35
2022/04/16 10:34:20;;;;;;;;;;;;;;;15.32;43.94;100521.56;5065488;28;20054;-35
2022/04/16 10:36:48;;;;;;;;;;;;;;;15.32;47.36;100529.34;5062469;28;20566;-35
2022/04/16 10:39:16;;;;;;;;;;;;;;;16.85;46.74;100511.75;5057322;28;19926;-35
2022/04/16 10:41:51;;;;;;;;;;;;;;;17.10;49.00;100522.16;5041058;28;20289;-35
2022/04/16 10:44:16;;;;;;;;;;;;;;;16.08;43.54;100508.16;5062423;28;19927;-35
2022/04/16 10:46:48;;;;;;;;;;;;;;;17.13;47.39;100511.69;5061155;28;19917;-35
2022/04/16 10:49:14;;;;;;;;;;;;;;;16.56;45.53;100507.50;5062248;28;20389;-35
2022/04/16 10:51:39;;;;;;;;;;;;;;;16.70;43.49;100496.66;5063995;28;19922;-35
2022/04/16 10:54:11;;;;;;;;;;;;;;;17.18;42.37;100492.44;5062621;28;19937;-35
2022/04/16 10:56:39;;;;;;;;;;;;;;;18.14;47.13;100501.03;5061885;28;19920;-35
2022/04/16 10:59:05;;;;;;;;;;;;;;;16.38;43.40;100495.09;5061099;28;20277;-37
2022/04/16 11:01:30;;;;;;;;;;;;;;;17.94;45.74;100494.84;5062992;28;19971;-38
2022/04/16 11:03:55;;;;;;;;;;;;;;;16.24;41.57;100501.59;5063771;28;19954;-35
2022/04/16 11:06:21;;;;;;;;;;;;;;;17.11;42.95;100490.06;5063604;28;19924;-35
2022/04/16 11:08:46;;;;;;;;;;;;;;;16.78;42.14;100483.38;5063793;28;19959;-35
2022/04/16 11:11:13;;;;;;;;;;;;;;;15.49;39.46;100488.22;5059324;28;20432;-35
2022/04/16 11:13:38;;;;;;;;;;;;;;;16.88;40.61;100484.81;5062585;28;19920;-36
2022/04/16 11:16:04;;;;;;;;;;;;;;;17.55;43.97;100484.97;5060363;28;19939;-36
2022/04/16 11:18:36;;;;;;;;;;;;;;;17.71;43.73;100487.03;5060925;28;19923;-36
2022/04/16 11:21:06;;;;;;;;;;;;;;;16.89;41.88;100491.69;5061755;28;20517;-38
2022/04/16 11:23:31;;;;;;;;;;;;;;;18.15;43.32;100487.09;5060278;28;19924;-36
2022/04/16 11:34:14;;;;;;;;;;;;;;;16.85;41.22;100484.88;5065230;28;19920;-37
2022/04/16 11:36:39;;;;;;;;;;;;;;;16.55;40.81;100494.53;5062848;28;19962;-38
2022/04/16 11:39:05;;;;;;;;;;;;;;;17.82;40.07;100482.28;5063071;28;19916;-37
2022/04/16 11:41:30;;;;;;;;;;;;;;;16.84;38.30;100475.41;5065082;28;20337;-37
2022/04/16 11:43:55;;;;;;;;;;;;;;;17.89;40.35;100483.75;5065022;28;19924;-37
2022/04/16 11:46:22;;;;;;;;;;;;;;;18.14;41.24;100491.47;5065599;28;20806;-37
2022/04/16 11:48:47;;;;;;;;;;;;;;;18.80;39.96;100480.97;5064735;28;19927;-37
2022/04/16 11:51:13;;;;;;;;;;;;;;;17.95;38.93;100483.53;5065388;28;19936;-37
2022/04/16 11:53:43;;;;;;;;;;;;;;;18.79;37.55;100481.91;5067914;28;19916;-37
2022/04/16 11:56:09;;;;;;;;;;;;;;;19.32;40.06;100477.88;5064373;28;19955;-37
2022/04/16 11:58:35;;;;;;;;;;;;;;;18.32;37.33;100478.59;5064923;28;20381;-37
2022/04/16 12:01:00;;;;;;;;;;;;;;;17.24;39.64;100487.00;5062444;28;19925;-37
2022/04/16 12:03:41;;;;;;;;;;;;;;;16.36;37.96;100470.91;5061135;28;19952;-37
2022/04/16 12:06:12;;;;;;;;;;;;;;;18.09;44.99;100476.91;5063572;28;20460;-37
2022/04/16 12:08:41;;;;;;;;;;;;;;;19.56;42.06;100468.06;5067514;28;19924;-37
2022/04/16 12:11:06;;;;;;;;;;;;;;;18.07;40.49;100476.13;5078348;28;19928;-37
2022/04/16 12:13:39;;;;;;;;;;;;;;;18.75;39.38;100475.06;5061905;28;20026;-37
2022/04/16 12:16:05;;;;;;;;;;;;;;;19.14;38.47;100473.47;5064855;28;19916;-37
2022/04/16 12:18:37;;;;;;;;;;;;;;;18.50;36.71;100464.81;5062487;28;20140;-37
2022/04/16 12:21:07;;;;;;;;;;;;;;;18.64;36.55;100458.19;5064098;28;19946;-37
2022/04/16 12:23:32;;;;;;;;;;;;;;;18.39;35.80;100467.00;5063430;28;19920;-37
2022/04/16 12:26:13;;;;;;;;;;;;;;;19.77;38.38;100474.09;5066700;28;20325;-37
2022/04/16 12:28:39;;;;;;;;;;;;;;;18.10;36.69;100470.78;5062653;28;19969;-37
2022/04/16 12:31:04;;;;;;;;;;;;;;;19.59;36.59;100470.53;5060885;28;19920;-37
2022/04/16 12:33:29;;;;;;;;;;;;;;;19.20;34.88;100458.38;5066313;28;21016;-37
2022/04/16 12:35:56;;;;;;;;;;;;;;;19.48;36.15;100461.47;5064317;28;19970;-37
2022/04/16 12:38:21;;;;;;;;;;;;;;;19.14;36.38;100458.63;5066951;28;19916;-37
2022/04/16 12:40:46;;;;;;;;;;;;;;;20.11;38.40;100464.66;5068151;28;19927;-37
2022/04/16 12:43:12;;;;;;;;;;;;;;;19.72;37.52;100454.31;5063970;28;20454;-37
2022/04/16 12:45:37;;;;;;;;;;;;;;;20.60;37.44;100454.41;5062548;28;20043;-37
2022/04/16 12:48:03;;;;;;;;;;;;;;;20.06;36.89;100453.56;5062124;28;19919;-37